Time;durP1;ratioP1;P1;durP2;ratioP2;P2;SDS_P1;SDS_P2;PMS_P1;PMS_P2;Temp;Humidity;BMP_temperature;BMP_pressure;BME280_temperature;BME280_humidity;BME280_pressure;Samples;Min_cycle;Max_cycle;Signal;HPM_P1;HPM_P2
2023/11/28 00:01:15;;;;;;;0.43;0.40;;;;;;;;;;5028458;28;20040;-83
2023/11/28 00:04:00;;;;;;;0.68;0.68;;;;;;;;;;5036669;28;20056;-83
2023/11/28 00:06:45;;;;;;;1.92;0.77;;;;;;;;;;5027936;28;20480;-84
2023/11/28 00:09:31;;;;;;;0.52;0.50;;;;;;;;;;5022024;28;20041;-84
2023/11/28 00:12:16;;;;;;;0.63;0.40;;;;;;;;;;5004381;28;20033;-84
2023/11/28 00:15:01;;;;;;;3.85;1.20;;;;;;;;;;5002909;28;20036;-84
2023/11/28 00:17:47;;;;;;;0.38;0.38;;;;;;;;;;5021621;28;20139;-84
2023/11/28 00:20:32;;;;;;;0.55;0.50;;;;;;;;;;5009043;28;20025;-85
2023/11/28 00:23:17;;;;;;;0.45;0.45;;;;;;;;;;4990226;28;20091;-84
2023/11/28 00:26:03;;;;;;;0.50;0.50;;;;;;;;;;5005110;28;20055;-84
2023/11/28 00:28:48;;;;;;;0.55;0.55;;;;;;;;;;4975550;28;20029;-84
2023/11/28 00:31:33;;;;;;;0.82;0.60;;;;;;;;;;5000966;28;20029;-84
2023/11/28 00:34:19;;;;;;;1.85;0.68;;;;;;;;;;5006710;28;20068;-84
2023/11/28 00:37:04;;;;;;;1.27;0.70;;;;;;;;;;5005633;28;20053;-83
2023/11/28 00:39:49;;;;;;;1.15;0.50;;;;;;;;;;5007694;28;20206;-83
2023/11/28 00:42:34;;;;;;;0.50;0.50;;;;;;;;;;5008476;28;20021;-83
2023/11/28 00:45:24;;;;;;;0.40;0.40;;;;;;;;;;5006262;28;20033;-82
2023/11/28 00:48:09;;;;;;;2.05;0.60;;;;;;;;;;5005004;28;20255;-82
2023/11/28 00:50:54;;;;;;;0.75;0.52;;;;;;;;;;4999080;28;20021;-84
2023/11/28 00:53:40;;;;;;;0.88;0.47;;;;;;;;;;5005997;28;20061;-84
2023/11/28 00:56:25;;;;;;;0.85;0.73;;;;;;;;;;5007027;28;20072;-83
2023/11/28 00:59:10;;;;;;;1.55;0.70;;;;;;;;;;5009628;28;20076;-83
2023/11/28 01:01:56;;;;;;;1.38;0.63;;;;;;;;;;4988776;28;20472;-84
2023/11/28 01:04:41;;;;;;;0.68;0.60;;;;;;;;;;4998858;28;20100;-83
2023/11/28 01:07:27;;;;;;;1.13;0.55;;;;;;;;;;5006669;28;20026;-83
2023/11/28 01:10:12;;;;;;;0.90;0.60;;;;;;;;;;5018307;28;20048;-84
2023/11/28 01:12:57;;;;;;;2.42;0.60;;;;;;;;;;5022591;28;20048;-84
2023/11/28 01:15:42;;;;;;;1.77;0.60;;;;;;;;;;5029994;28;20389;-83
2023/11/28 01:18:28;;;;;;;0.80;0.65;;;;;;;;;;5031384;28;20021;-84
2023/11/28 01:21:13;;;;;;;0.80;0.68;;;;;;;;;;5028115;28;20028;-83
2023/11/28 01:23:58;;;;;;;0.88;0.70;;;;;;;;;;5031088;28;20067;-84
2023/11/28 01:26:43;;;;;;;1.75;0.40;;;;;;;;;;5025712;28;20025;-82
2023/11/28 01:29:29;;;;;;;1.05;0.75;;;;;;;;;;5029535;28;20082;-83
2023/11/28 01:32:14;;;;;;;0.47;0.47;;;;;;;;;;5039585;28;20032;-83
2023/11/28 01:34:59;;;;;;;2.17;0.50;;;;;;;;;;5019564;28;20037;-84
2023/11/28 01:37:44;;;;;;;0.57;0.50;;;;;;;;;;5024025;28;20064;-83
2023/11/28 01:40:30;;;;;;;1.25;1.08;;;;;;;;;;5025221;28;20025;-82
2023/11/28 01:43:25;;;;;;;3.55;0.73;;;;;;;;;;5029871;28;20064;-83
2023/11/28 01:46:11;;;;;;;0.50;0.50;;;;;;;;;;5026052;28;20039;-84
2023/11/28 01:48:56;;;;;;;2.40;0.68;;;;;;;;;;5031016;28;20025;-83
2023/11/28 01:51:42;;;;;;;1.98;0.50;;;;;;;;;;5012630;28;20029;-83
2023/11/28 01:54:27;;;;;;;0.40;0.40;;;;;;;;;;5027063;28;20033;-84
2023/11/28 01:57:12;;;;;;;0.60;0.60;;;;;;;;;;5028919;28;20039;-82
2023/11/28 01:59:59;;;;;;;1.02;0.88;;;;;;;;;;5041649;28;20049;-81
2023/11/28 02:02:44;;;;;;;2.60;0.95;;;;;;;;;;5026666;28;20073;-83
2023/11/28 02:05:28;;;;;;;1.35;0.80;;;;;;;;;;5039679;28;20036;-84
2023/11/28 02:08:14;;;;;;;0.55;0.50;;;;;;;;;;5060353;28;20047;-84
2023/11/28 02:10:59;;;;;;;1.77;0.70;;;;;;;;;;5051665;28;20105;-83
2023/11/28 02:13:45;;;;;;;0.68;0.68;;;;;;;;;;5043386;28;20689;-83
2023/11/28 02:16:30;;;;;;;0.85;0.80;;;;;;;;;;5036647;28;20150;-84
2023/11/28 02:19:16;;;;;;;2.63;0.80;;;;;;;;;;5017422;28;20028;-84
2023/11/28 02:22:01;;;;;;;0.77;0.60;;;;;;;;;;5031161;28;20029;-83
2023/11/28 02:24:48;;;;;;;2.13;0.77;;;;;;;;;;5029514;28;20643;-82
2023/11/28 02:27:33;;;;;;;0.90;0.50;;;;;;;;;;5030508;28;20033;-83
2023/11/28 02:30:19;;;;;;;0.50;0.50;;;;;;;;;;5035441;28;20032;-84
2023/11/28 02:33:04;;;;;;;0.57;0.52;;;;;;;;;;5006167;28;20041;-84
2023/11/28 02:35:51;;;;;;;2.03;0.50;;;;;;;;;;5028739;28;20033;-83
2023/11/28 02:38:36;;;;;;;0.70;0.60;;;;;;;;;;5029356;28;20024;-84
2023/11/28 02:41:21;;;;;;;0.40;0.40;;;;;;;;;;5030062;28;20021;-84
2023/11/28 02:44:07;;;;;;;0.55;0.55;;;;;;;;;;5026915;28;20083;-84
2023/11/28 02:46:52;;;;;;;0.95;0.63;;;;;;;;;;5017483;28;20467;-83
2023/11/28 02:49:37;;;;;;;1.17;0.50;;;;;;;;;;5027333;28;20024;-83
2023/11/28 02:52:22;;;;;;;0.65;0.60;;;;;;;;;;5014509;28;20021;-83
2023/11/28 02:55:08;;;;;;;0.73;0.50;;;;;;;;;;5013818;28;20016;-84
2023/11/28 02:57:53;;;;;;;1.13;0.60;;;;;;;;;;5029382;28;20044;-83
2023/11/28 03:00:38;;;;;;;0.68;0.60;;;;;;;;;;5027507;28;20087;-83
2023/11/28 03:03:23;;;;;;;0.90;0.55;;;;;;;;;;5028194;28;20116;-83
2023/11/28 03:06:09;;;;;;;0.73;0.60;;;;;;;;;;5026086;28;20025;-82
2023/11/28 03:08:54;;;;;;;0.43;0.43;;;;;;;;;;5024460;28;20103;-83
2023/11/28 03:11:39;;;;;;;0.82;0.80;;;;;;;;;;5029286;28;20044;-84
2023/11/28 03:14:26;;;;;;;1.13;0.68;;;;;;;;;;5025585;28;20025;-85
2023/11/28 03:17:11;;;;;;;2.22;0.70;;;;;;;;;;5024158;28;20164;-84
2023/11/28 03:19:57;;;;;;;1.30;0.70;;;;;;;;;;5014942;28;20049;-83
2023/11/28 03:22:42;;;;;;;1.00;0.60;;;;;;;;;;5012898;28;20439;-84
2023/11/28 03:25:27;;;;;;;0.50;0.50;;;;;;;;;;5020412;28;20037;-84
2023/11/28 03:28:13;;;;;;;0.80;0.50;;;;;;;;;;5030357;28;20102;-85
2023/11/28 03:30:58;;;;;;;0.85;0.60;;;;;;;;;;5027714;28;20067;-83
2023/11/28 03:33:43;;;;;;;0.63;0.55;;;;;;;;;;5025584;28;20029;-84
2023/11/28 03:36:28;;;;;;;0.85;0.52;;;;;;;;;;5026130;28;20399;-85
2023/11/28 03:39:15;;;;;;;0.50;0.50;;;;;;;;;;5025744;28;20061;-85
2023/11/28 03:42:00;;;;;;;0.82;0.50;;;;;;;;;;5024841;28;20013;-85
2023/11/28 03:44:45;;;;;;;0.75;0.57;;;;;;;;;;5011744;28;20025;-85
2023/11/28 03:47:31;;;;;;;1.48;0.95;;;;;;;;;;5030081;28;20033;-85
2023/11/28 03:50:16;;;;;;;0.93;0.60;;;;;;;;;;5029845;28;20033;-84
2023/11/28 03:53:01;;;;;;;1.35;0.52;;;;;;;;;;5018995;28;20041;-85
2023/11/28 03:55:46;;;;;;;0.75;0.70;;;;;;;;;;5012742;28;20112;-85
2023/11/28 03:58:31;;;;;;;0.40;0.40;;;;;;;;;;5016440;28;20113;-84
2023/11/28 04:01:17;;;;;;;0.50;0.50;;;;;;;;;;5015187;28;20028;-84
2023/11/28 04:04:02;;;;;;;1.27;0.60;;;;;;;;;;5025251;28;20036;-83
2023/11/28 04:06:47;;;;;;;1.40;1.15;;;;;;;;;;5028100;28;20391;-83
2023/11/28 04:09:33;;;;;;;0.77;0.60;;;;;;;;;;5027103;28;20045;-83
2023/11/28 04:12:19;;;;;;;0.40;0.40;;;;;;;;;;5023318;28;20036;-84
2023/11/28 04:15:04;;;;;;;0.65;0.60;;;;;;;;;;5024356;28;20031;-84
2023/11/28 04:17:50;;;;;;;0.52;0.52;;;;;;;;;;5027571;28;20498;-83
2023/11/28 04:20:35;;;;;;;0.63;0.47;;;;;;;;;;5021313;28;20024;-84
2023/11/28 04:23:21;;;;;;;0.68;0.68;;;;;;;;;;5022473;28;20047;-84
2023/11/28 04:26:09;;;;;;;0.82;0.80;;;;;;;;;;5015594;28;21313;-84
2023/11/28 04:28:55;;;;;;;1.02;0.52;;;;;;;;;;5040581;28;20024;-83
2023/11/28 04:31:45;;;;;;;2.65;0.50;;;;;;;;;;5033441;28;20355;-82
2023/11/28 04:34:31;;;;;;;2.88;1.08;;;;;;;;;;5022210;28;20021;-84
2023/11/28 04:37:16;;;;;;;1.98;0.68;;;;;;;;;;5035112;28;20095;-85
2023/11/28 04:40:04;;;;;;;0.95;0.60;;;;;;;;;;5014717;28;20024;-83
2023/11/28 04:42:49;;;;;;;0.60;0.60;;;;;;;;;;5013860;28;20021;-85
2023/11/28 04:45:37;;;;;;;1.98;0.73;;;;;;;;;;5027757;28;20021;-85
2023/11/28 04:48:22;;;;;;;0.60;0.55;;;;;;;;;;5025285;28;20099;-84
2023/11/28 04:51:08;;;;;;;1.33;0.60;;;;;;;;;;5024251;28;20063;-84
2023/11/28 04:53:53;;;;;;;0.43;0.43;;;;;;;;;;5022306;28;20021;-83
2023/11/28 04:56:38;;;;;;;0.47;0.47;;;;;;;;;;5021953;28;20035;-83
2023/11/28 04:59:23;;;;;;;1.08;0.80;;;;;;;;;;5010943;28;20033;-83
2023/11/28 05:02:08;;;;;;;1.05;0.55;;;;;;;;;;5021556;28;20104;-83
2023/11/28 05:04:54;;;;;;;1.63;0.93;;;;;;;;;;5021779;28;20025;-84
2023/11/28 05:07:39;;;;;;;1.95;1.25;;;;;;;;;;5022543;28;20136;-84
2023/11/28 05:10:24;;;;;;;0.90;0.70;;;;;;;;;;5013746;28;20515;-84
2023/11/28 05:13:10;;;;;;;0.75;0.63;;;;;;;;;;5006742;28;20491;-85
2023/11/28 05:15:55;;;;;;;0.68;0.68;;;;;;;;;;5020184;28;20035;-84
2023/11/28 05:18:41;;;;;;;0.65;0.50;;;;;;;;;;5028493;28;20395;-85
2023/11/28 05:21:26;;;;;;;5.68;1.20;;;;;;;;;;5025712;28;20647;-84
2023/11/28 05:24:11;;;;;;;1.33;0.57;;;;;;;;;;5025033;28;20099;-85
2023/11/28 05:26:57;;;;;;;2.22;0.60;;;;;;;;;;5014786;28;20057;-84
2023/11/28 05:29:43;;;;;;;1.23;0.50;;;;;;;;;;5013284;28;20029;-85
2023/11/28 05:32:28;;;;;;;1.73;1.05;;;;;;;;;;5033568;28;20086;-85
2023/11/28 05:35:15;;;;;;;1.23;0.90;;;;;;;;;;5017117;28;20025;-85
2023/11/28 05:38:01;;;;;;;2.55;1.30;;;;;;;;;;5017174;28;20037;-85
2023/11/28 05:40:46;;;;;;;1.30;1.08;;;;;;;;;;5017020;28;20491;-85
2023/11/28 05:43:32;;;;;;;2.42;1.13;;;;;;;;;;5028679;28;20032;-84
2023/11/28 05:46:18;;;;;;;1.23;1.13;;;;;;;;;;5018743;28;20068;-85
2023/11/28 05:49:03;;;;;;;1.42;1.02;;;;;;;;;;5040457;28;20083;-83
2023/11/28 05:51:48;;;;;;;1.50;1.00;;;;;;;;;;5044687;28;20029;-83
2023/11/28 05:54:33;;;;;;;1.05;0.98;;;;;;;;;;5031325;28;20024;-84
2023/11/28 05:57:20;;;;;;;1.20;0.93;;;;;;;;;;5029998;28;20036;-85
2023/11/28 06:00:06;;;;;;;1.55;1.40;;;;;;;;;;5030778;28;20028;-83
2023/11/28 06:02:51;;;;;;;1.55;1.10;;;;;;;;;;5009950;28;20056;-83
2023/11/28 06:05:37;;;;;;;1.98;1.25;;;;;;;;;;5013388;28;20653;-84
2023/11/28 06:08:22;;;;;;;1.08;0.98;;;;;;;;;;5002743;28;20043;-82
2023/11/28 06:11:08;;;;;;;6.50;1.30;;;;;;;;;;5023017;28;20041;-83
2023/11/28 06:13:54;;;;;;;2.05;1.20;;;;;;;;;;5016276;28;20029;-84
2023/11/28 06:16:39;;;;;;;7.10;2.97;;;;;;;;;;5019862;28;20068;-84
2023/11/28 06:19:25;;;;;;;2.65;1.50;;;;;;;;;;5038112;28;20368;-83
2023/11/28 06:22:10;;;;;;;3.25;1.50;;;;;;;;;;5024078;28;20021;-83
2023/11/28 06:24:56;;;;;;;1.80;1.30;;;;;;;;;;5016536;28;20032;-83
2023/11/28 06:27:41;;;;;;;2.10;1.40;;;;;;;;;;5022008;28;20024;-84
2023/11/28 06:30:26;;;;;;;2.40;1.30;;;;;;;;;;5028889;28;20082;-84
2023/11/28 06:33:11;;;;;;;2.45;1.77;;;;;;;;;;5019135;28;20116;-86
2023/11/28 06:35:57;;;;;;;9.95;1.38;;;;;;;;;;5022886;28;20025;-84
2023/11/28 06:38:42;;;;;;;1.67;1.17;;;;;;;;;;5021805;28;20029;-84
2023/11/28 06:41:27;;;;;;;2.20;1.30;;;;;;;;;;5021543;28;20090;-86
2023/11/28 06:44:13;;;;;;;2.28;1.88;;;;;;;;;;5010440;28;20109;-79
2023/11/28 06:46:59;;;;;;;1.80;1.27;;;;;;;;;;5025812;28;20092;-79
2023/11/28 06:49:45;;;;;;;1.88;1.25;;;;;;;;;;5019222;28;20076;-80
2023/11/28 06:52:30;;;;;;;1.98;1.38;;;;;;;;;;5031852;28;20040;-79
2023/11/28 06:55:15;;;;;;;2.05;1.13;;;;;;;;;;5020124;28;20021;-79
2023/11/28 06:58:01;;;;;;;1.13;0.75;;;;;;;;;;5022716;28;20487;-80
2023/11/28 07:00:47;;;;;;;0.80;0.63;;;;;;;;;;5016807;28;20032;-80
2023/11/28 07:03:33;;;;;;;0.60;0.60;;;;;;;;;;5032558;28;20034;-82
2023/11/28 07:06:19;;;;;;;0.50;0.50;;;;;;;;;;5021977;28;20562;-84
2023/11/28 07:09:04;;;;;;;0.70;0.70;;;;;;;;;;5026485;28;20048;-84
2023/11/28 07:11:53;;;;;;;0.80;0.80;;;;;;;;;;5022951;28;20140;-82
2023/11/28 07:14:38;;;;;;;0.60;0.60;;;;;;;;;;5022408;28;20018;-83
2023/11/28 07:17:23;;;;;;;0.93;0.50;;;;;;;;;;5022503;28;20025;-83
2023/11/28 07:20:09;;;;;;;1.48;0.65;;;;;;;;;;5016799;28;20067;-82
2023/11/28 07:22:55;;;;;;;1.00;0.70;;;;;;;;;;5021022;28;20115;-82
2023/11/28 07:25:40;;;;;;;1.40;0.70;;;;;;;;;;5023925;28;20132;-83
2023/11/28 07:28:26;;;;;;;1.38;0.90;;;;;;;;;;5021042;28;21192;-83
2023/11/28 07:31:14;;;;;;;1.17;0.80;;;;;;;;;;5025117;28;20140;-81
2023/11/28 07:33:59;;;;;;;0.75;0.57;;;;;;;;;;5022834;28;20021;-84
2023/11/28 07:36:47;;;;;;;1.35;0.70;;;;;;;;;;5026937;28;20021;-82
2023/11/28 07:39:32;;;;;;;1.80;0.90;;;;;;;;;;5026700;28;20036;-82
2023/11/28 07:42:17;;;;;;;5.38;1.10;;;;;;;;;;5017345;28;20025;-82
2023/11/28 07:45:03;;;;;;;0.70;0.70;;;;;;;;;;5039475;28;20056;-83
2023/11/28 07:47:48;;;;;;;1.27;0.90;;;;;;;;;;5026861;28;20082;-83
2023/11/28 07:50:34;;;;;;;1.83;0.80;;;;;;;;;;5023621;28;20025;-82
2023/11/28 07:53:19;;;;;;;0.82;0.82;;;;;;;;;;5017468;28;20025;-82
2023/11/28 07:56:05;;;;;;;0.52;0.52;;;;;;;;;;5021783;28;20032;-82
2023/11/28 07:58:50;;;;;;;0.60;0.60;;;;;;;;;;5008502;28;20025;-83
2023/11/28 08:01:35;;;;;;;9.30;1.50;;;;;;;;;;5022071;28;20567;-82
2023/11/28 08:04:20;;;;;;;2.40;0.95;;;;;;;;;;5021624;28;20045;-80
2023/11/28 08:07:06;;;;;;;1.20;0.57;;;;;;;;;;5023812;28;20036;-80
2023/11/28 08:09:51;;;;;;;1.10;0.90;;;;;;;;;;5025502;28;20365;-81
2023/11/28 08:12:36;;;;;;;0.85;0.68;;;;;;;;;;5021539;28;20029;-81
2023/11/28 08:15:22;;;;;;;0.68;0.68;;;;;;;;;;5027256;28;20230;-82
2023/11/28 08:18:07;;;;;;;0.65;0.60;;;;;;;;;;5021649;28;20087;-84
2023/11/28 08:20:52;;;;;;;1.27;0.75;;;;;;;;;;5026397;28;20488;-83
2023/11/28 08:23:38;;;;;;;1.13;1.02;;;;;;;;;;5009196;28;20121;-83
2023/11/28 08:26:25;;;;;;;0.75;0.75;;;;;;;;;;5019641;28;20396;-85
2023/11/28 08:29:11;;;;;;;0.70;0.70;;;;;;;;;;5022779;28;20483;-84
2023/11/28 08:31:58;;;;;;;0.93;0.80;;;;;;;;;;5026435;28;20480;-83
2023/11/28 08:34:44;;;;;;;1.10;1.00;;;;;;;;;;5021703;28;20037;-83
2023/11/28 08:37:31;;;;;;;1.00;0.68;;;;;;;;;;5015823;28;20028;-83
2023/11/28 08:40:16;;;;;;;0.77;0.77;;;;;;;;;;5021622;28;20471;-84
2023/11/28 08:43:01;;;;;;;0.80;0.70;;;;;;;;;;5019195;28;20024;-84
2023/11/28 08:45:46;;;;;;;2.20;0.82;;;;;;;;;;5019667;28;20025;-85
2023/11/28 08:48:32;;;;;;;1.40;0.85;;;;;;;;;;5018659;28;20111;-84
2023/11/28 08:51:17;;;;;;;1.00;0.68;;;;;;;;;;5021140;28;20053;-85
2023/11/28 08:54:02;;;;;;;0.90;0.80;;;;;;;;;;5020330;28;20098;-83
2023/11/28 08:56:47;;;;;;;0.60;0.60;;;;;;;;;;5022633;28;20411;-83
2023/11/28 08:59:33;;;;;;;1.20;1.00;;;;;;;;;;5021667;28;20091;-83
2023/11/28 09:02:18;;;;;;;1.00;0.80;;;;;;;;;;5023718;28;20532;-82
2023/11/28 09:05:04;;;;;;;0.88;0.88;;;;;;;;;;5024106;28;20025;-82
2023/11/28 09:07:49;;;;;;;1.05;0.98;;;;;;;;;;5021710;28;20021;-83
2023/11/28 09:10:34;;;;;;;1.20;0.98;;;;;;;;;;5008568;28;20041;-82
2023/11/28 09:13:20;;;;;;;1.70;0.65;;;;;;;;;;5022781;28;20033;-83
2023/11/28 09:16:09;;;;;;;1.67;1.35;;;;;;;;;;5020926;28;20033;-84
2023/11/28 09:18:54;;;;;;;1.50;0.93;;;;;;;;;;5020022;28;20026;-83
2023/11/28 09:21:40;;;;;;;5.78;2.10;;;;;;;;;;5023448;28;20029;-82
2023/11/28 09:24:25;;;;;;;1.33;0.80;;;;;;;;;;5020248;28;20029;-83
2023/11/28 09:27:12;;;;;;;1.20;0.60;;;;;;;;;;5019706;28;20116;-84
2023/11/28 09:29:57;;;;;;;0.73;0.73;;;;;;;;;;5017704;28;20074;-85
2023/11/28 09:32:42;;;;;;;1.77;1.00;;;;;;;;;;5029385;28;20021;-83
2023/11/28 09:35:28;;;;;;;1.02;0.75;;;;;;;;;;5030522;28;20028;-83
2023/11/28 09:38:16;;;;;;;1.42;0.80;;;;;;;;;;5025991;28;20143;-84
2023/11/28 09:41:01;;;;;;;1.50;0.80;;;;;;;;;;5030134;28;20033;-83
2023/11/28 09:43:48;;;;;;;1.52;1.02;;;;;;;;;;5022997;28;20037;-84
2023/11/28 09:46:35;;;;;;;0.80;0.80;;;;;;;;;;5027713;28;20039;-83
2023/11/28 09:49:21;;;;;;;1.92;1.30;;;;;;;;;;5024538;28;20025;-83
2023/11/28 09:52:06;;;;;;;1.15;0.90;;;;;;;;;;5024772;28;20032;-83
2023/11/28 09:54:52;;;;;;;1.52;1.02;;;;;;;;;;5020874;28;20491;-82
2023/11/28 09:57:41;;;;;;;2.50;1.02;;;;;;;;;;5024574;28;20037;-82
2023/11/28 10:00:27;;;;;;;1.27;0.82;;;;;;;;;;5021498;28;20040;-82
2023/11/28 10:03:12;;;;;;;0.88;0.85;;;;;;;;;;5025447;28;20024;-84
2023/11/28 10:05:58;;;;;;;1.30;0.80;;;;;;;;;;5046413;28;20519;-84
2023/11/28 10:08:42;;;;;;;2.10;0.85;;;;;;;;;;5066386;28;20047;-84
2023/11/28 10:11:34;;;;;;;4.03;0.80;;;;;;;;;;5041882;28;20064;-84
2023/11/28 10:14:19;;;;;;;0.98;0.65;;;;;;;;;;5026329;28;20028;-82
2023/11/28 10:17:04;;;;;;;1.23;0.95;;;;;;;;;;5056832;28;20032;-83
2023/11/28 10:19:50;;;;;;;1.00;0.90;;;;;;;;;;5031153;28;20036;-83
2023/11/28 10:22:35;;;;;;;0.82;0.82;;;;;;;;;;5026917;28;20021;-83
2023/11/28 10:25:23;;;;;;;1.63;0.80;;;;;;;;;;5025907;28;20059;-83
2023/11/28 10:28:12;;;;;;;1.20;1.10;;;;;;;;;;5021520;28;20083;-84
2023/11/28 10:30:57;;;;;;;0.75;0.75;;;;;;;;;;5029800;28;20021;-84
2023/11/28 10:33:42;;;;;;;2.20;1.05;;;;;;;;;;5023552;28;20020;-82
2023/11/28 10:36:30;;;;;;;1.42;1.08;;;;;;;;;;5021592;28;20040;-82
2023/11/28 10:39:18;;;;;;;1.63;1.30;;;;;;;;;;5017852;28;20676;-82
2023/11/28 10:42:05;;;;;;;1.48;1.30;;;;;;;;;;5018398;28;20028;-83
2023/11/28 10:44:50;;;;;;;1.25;1.10;;;;;;;;;;5025176;28;20053;-81
2023/11/28 10:47:38;;;;;;;1.73;1.27;;;;;;;;;;5029608;28;20039;-84
2023/11/28 10:50:24;;;;;;;2.10;1.40;;;;;;;;;;5024685;28;20040;-84
2023/11/28 10:53:11;;;;;;;2.00;1.23;;;;;;;;;;5026182;28;20036;-84
2023/11/28 10:55:57;;;;;;;2.63;1.40;;;;;;;;;;5007494;28;20036;-86
2023/11/28 10:58:45;;;;;;;1.92;1.15;;;;;;;;;;5025680;28;20040;-82
2023/11/28 11:01:30;;;;;;;1.30;1.20;;;;;;;;;;5025849;28;20114;-84
2023/11/28 11:04:15;;;;;;;1.17;1.08;;;;;;;;;;5022842;28;20052;-80
2023/11/28 11:07:01;;;;;;;1.42;1.10;;;;;;;;;;5019528;28;20018;-81
2023/11/28 11:09:47;;;;;;;1.15;0.98;;;;;;;;;;5013867;28;20071;-82
2023/11/28 11:12:33;;;;;;;1.30;1.20;;;;;;;;;;5017793;28;20025;-82
2023/11/28 11:15:26;;;;;;;1.20;1.10;;;;;;;;;;5022477;28;20483;-84
2023/11/28 11:18:34;;;;;;;5.63;2.45;;;;;;;;;;5019676;28;20064;-84
2023/11/28 11:21:25;;;;;;;3.30;1.63;;;;;;;;;;5026129;28;20052;-83
2023/11/28 11:24:15;;;;;;;2.22;1.40;;;;;;;;;;5025403;28;20071;-84
2023/11/28 11:27:02;;;;;;;;;;;;;;;;;;5026912;28;20040;-85
2023/11/28 11:29:47;;;;;;;1.10;1.00;;;;;;;;;;5032272;28;20019;-84
2023/11/28 11:32:34;;;;;;;2.95;1.73;;;;;;;;;;5032537;28;20955;-79
2023/11/28 11:35:19;;;;;;;2.30;1.33;;;;;;;;;;5024287;28;20045;-83
2023/11/28 11:38:24;;;;;;;1.85;1.38;;;;;;;;;;5026877;28;20040;-84
2023/11/28 11:41:11;;;;;;;1.42;1.33;;;;;;;;;;5019189;28;20112;-85
2023/11/28 11:43:56;;;;;;;2.47;1.85;;;;;;;;;;5025287;28;20574;-86
2023/11/28 11:46:41;;;;;;;2.15;1.60;;;;;;;;;;5023115;28;20020;-85
2023/11/28 11:49:26;;;;;;;1.63;1.42;;;;;;;;;;5021295;28;20108;-85
2023/11/28 11:52:13;;;;;;;2.45;1.35;;;;;;;;;;5017037;28;20448;-85
2023/11/28 11:55:02;;;;;;;1.52;1.33;;;;;;;;;;5035075;28;20029;-85
2023/11/28 11:57:48;;;;;;;;;;;;;;;;;;5025294;28;20029;-88
2023/11/28 12:00:34;;;;;;;2.40;1.52;;;;;;;;;;5025652;28;19943;-86
2023/11/28 12:03:20;;;;;;;3.38;2.08;;;;;;;;;;5021979;28;20128;-83
2023/11/28 12:06:06;;;;;;;3.33;2.05;;;;;;;;;;5021879;28;20021;-86
2023/11/28 12:08:58;;;;;;;3.67;2.47;;;;;;;;;;5028317;28;20037;-85
2023/11/28 12:11:43;;;;;;;2.00;1.75;;;;;;;;;;5027256;28;20025;-85
2023/11/28 12:14:29;;;;;;;1.90;1.40;;;;;;;;;;5019876;28;20024;-85
2023/11/28 12:17:19;;;;;;;2.08;1.73;;;;;;;;;;5020340;28;20409;-83
2023/11/28 12:20:05;;;;;;;2.45;1.67;;;;;;;;;;5038486;28;20032;-83
2023/11/28 12:22:52;;;;;;;2.92;2.03;;;;;;;;;;5017134;28;20032;-83
2023/11/28 12:25:38;;;;;;;2.30;1.98;;;;;;;;;;5018130;28;20032;-84
2023/11/28 12:28:25;;;;;;;4.15;1.80;;;;;;;;;;5022019;28;20017;-87
2023/11/28 12:31:10;;;;;;;3.10;1.83;;;;;;;;;;5004818;28;20022;-86
2023/11/28 12:33:55;;;;;;;1.67;1.52;;;;;;;;;;5019900;28;20107;-87
2023/11/28 12:36:45;;;;;;;2.17;1.92;;;;;;;;;;5021156;28;20047;-84
2023/11/28 12:39:30;;;;;;;2.00;1.65;;;;;;;;;;5024840;28;20126;-84
2023/11/28 12:42:17;;;;;;;1.50;1.40;;;;;;;;;;5023865;28;20029;-84
2023/11/28 12:45:02;;;;;;;1.92;1.60;;;;;;;;;;5024381;28;20049;-83
2023/11/28 12:47:48;;;;;;;3.80;2.45;;;;;;;;;;5022893;28;20025;-83
2023/11/28 12:50:34;;;;;;;2.75;2.28;;;;;;;;;;5024631;28;20601;-82
2023/11/28 12:53:24;;;;;;;3.47;2.72;;;;;;;;;;5018178;28;20047;-81
2023/11/28 12:56:10;;;;;;;5.05;2.88;;;;;;;;;;5019975;28;20443;-81
2023/11/28 12:58:57;;;;;;;3.15;2.60;;;;;;;;;;5032374;28;20029;-80
2023/11/28 13:01:43;;;;;;;3.42;2.70;;;;;;;;;;5029009;28;20405;-84
2023/11/28 13:04:31;;;;;;;3.25;2.50;;;;;;;;;;5024034;28;20043;-90
2023/11/28 13:07:16;;;;;;;5.10;3.13;;;;;;;;;;5018551;28;20063;-82
2023/11/28 13:10:02;;;;;;;3.88;2.50;;;;;;;;;;5024191;28;20049;-83
2023/11/28 13:12:47;;;;;;;3.22;2.30;;;;;;;;;;5020970;28;20028;-81
2023/11/28 13:15:33;;;;;;;3.38;2.50;;;;;;;;;;5019551;28;20514;-79
2023/11/28 13:18:20;;;;;;;5.28;2.50;;;;;;;;;;5026296;28;20032;-86
2023/11/28 13:21:06;;;;;;;4.22;2.50;;;;;;;;;;5021069;28;20029;-83
2023/11/28 13:23:51;;;;;;;4.15;2.60;;;;;;;;;;5022365;28;20013;-83
2023/11/28 13:26:37;;;;;;;2.35;2.15;;;;;;;;;;5039214;28;20116;-86
2023/11/28 13:29:22;;;;;;;3.05;2.65;;;;;;;;;;5026651;28;20400;-85
2023/11/28 13:32:08;;;;;;;3.55;2.60;;;;;;;;;;5029191;28;20391;-88
2023/11/28 13:34:53;;;;;;;3.10;2.47;;;;;;;;;;5027533;28;20032;-85
2023/11/28 13:37:38;;;;;;;3.60;2.60;;;;;;;;;;5027311;28;20104;-87
2023/11/28 13:40:23;;;;;;;3.10;2.53;;;;;;;;;;5021148;28;20029;-86
2023/11/28 13:43:09;;;;;;;3.28;2.55;;;;;;;;;;5024831;28;20024;-83
2023/11/28 13:45:54;;;;;;;3.05;2.55;;;;;;;;;;5008724;28;20064;-88
2023/11/28 13:48:52;;;;;;;4.35;2.53;;;;;;;;;;5019275;28;20056;-91
2023/11/28 13:51:53;;;;;;;8.10;3.40;;;;;;;;;;5016646;28;20037;-92
2023/11/28 13:54:38;;;;;;;3.28;2.47;;;;;;;;;;5026165;28;20041;-90
2023/11/28 13:57:23;;;;;;;2.70;2.50;;;;;;;;;;5029051;28;20028;-90
2023/11/28 14:00:09;;;;;;;4.85;2.83;;;;;;;;;;5025095;28;20049;-89
2023/11/28 14:02:54;;;;;;;6.30;2.35;;;;;;;;;;5028111;28;20029;-90
2023/11/28 14:05:40;;;;;;;4.22;2.67;;;;;;;;;;5023809;28;20028;-90
2023/11/28 14:08:25;;;;;;;3.88;3.00;;;;;;;;;;5016345;28;20029;-88
2023/11/28 14:11:11;;;;;;;2.60;2.28;;;;;;;;;;5024266;28;20044;-87
2023/11/28 14:13:56;;;;;;;4.68;2.90;;;;;;;;;;5020188;28;20028;-90
2023/11/28 14:16:41;;;;;;;5.95;2.70;;;;;;;;;;5027598;28;20078;-89
2023/11/28 14:19:27;;;;;;;3.65;2.63;;;;;;;;;;5023279;28;20037;-84
2023/11/28 14:22:12;;;;;;;3.53;2.72;;;;;;;;;;5024438;28;20037;-86
2023/11/28 14:24:57;;;;;;;4.43;3.03;;;;;;;;;;5048364;28;20562;-86
2023/11/28 14:27:43;;;;;;;3.25;2.53;;;;;;;;;;5033914;28;20725;-86
2023/11/28 14:30:28;;;;;;;3.33;2.58;;;;;;;;;;5039449;28;20021;-85
2023/11/28 14:33:13;;;;;;;4.85;2.85;;;;;;;;;;5033430;28;20063;-89
2023/11/28 14:35:58;;;;;;;7.28;3.60;;;;;;;;;;5021232;28;20048;-88
2023/11/28 14:38:44;;;;;;;4.35;2.92;;;;;;;;;;5020575;28;20512;-87
2023/11/28 14:41:30;;;;;;;4.63;3.08;;;;;;;;;;5026435;28;20475;-87
2023/11/28 14:44:15;;;;;;;5.65;3.65;;;;;;;;;;5023711;28;20414;-83
2023/11/28 14:47:00;;;;;;;3.70;3.00;;;;;;;;;;5025149;28;20053;-86
2023/11/28 14:49:46;;;;;;;5.45;3.85;;;;;;;;;;5026928;28;20090;-88
2023/11/28 14:52:31;;;;;;;4.68;3.58;;;;;;;;;;5024939;28;20029;-87
2023/11/28 14:55:16;;;;;;;4.40;3.40;;;;;;;;;;5031109;28;20067;-87
2023/11/28 14:58:01;;;;;;;4.22;3.05;;;;;;;;;;5027541;28;20399;-88
2023/11/28 15:00:47;;;;;;;6.03;3.45;;;;;;;;;;5020568;28;20025;-89
2023/11/28 15:03:32;;;;;;;6.45;3.40;;;;;;;;;;5024733;28;20063;-88
2023/11/28 15:06:18;;;;;;;4.55;3.65;;;;;;;;;;5012018;28;20450;-87
2023/11/28 15:09:03;;;;;;;4.78;3.55;;;;;;;;;;5021551;28;20033;-87
2023/11/28 15:11:57;;;;;;;4.20;3.28;;;;;;;;;;5010263;28;20082;-91
2023/11/28 15:14:43;;;;;;;4.07;3.25;;;;;;;;;;5008290;28;20041;-90
2023/11/28 15:17:28;;;;;;;4.70;3.13;;;;;;;;;;5005779;28;20080;-90
2023/11/28 15:20:13;;;;;;;4.22;3.13;;;;;;;;;;5002145;28;20589;-87
2023/11/28 15:23:03;;;;;;;9.07;3.03;;;;;;;;;;5003483;28;20064;-87
2023/11/28 15:25:49;;;;;;;5.22;3.20;;;;;;;;;;5003876;28;20033;-86
2023/11/28 15:28:34;;;;;;;5.60;3.58;;;;;;;;;;5008511;28;20030;-86
2023/11/28 15:31:19;;;;;;;4.45;3.35;;;;;;;;;;5008702;28;20131;-88
2023/11/28 15:34:05;;;;;;;5.38;3.55;;;;;;;;;;5010826;28;20053;-84
2023/11/28 15:36:50;;;;;;;5.45;2.88;;;;;;;;;;5008423;28;20031;-86
2023/11/28 15:39:35;;;;;;;5.60;3.92;;;;;;;;;;5010408;28;20025;-84
2023/11/28 15:42:24;;;;;;;5.32;3.88;;;;;;;;;;5015136;28;20025;-89
2023/11/28 15:45:09;;;;;;;5.10;3.72;;;;;;;;;;5009084;28;20032;-85
2023/11/28 15:47:55;;;;;;;5.00;3.35;;;;;;;;;;5004391;28;20029;-84
2023/11/28 15:50:41;;;;;;;8.20;3.80;;;;;;;;;;5001627;28;20108;-87
2023/11/28 15:53:27;;;;;;;5.20;3.70;;;;;;;;;;5002774;28;20021;-85
2023/11/28 15:56:12;;;;;;;5.93;3.35;;;;;;;;;;5002924;28;20112;-84
2023/11/28 15:58:57;;;;;;;4.07;3.17;;;;;;;;;;5004799;28;20048;-85
2023/11/28 16:01:43;;;;;;;4.97;3.70;;;;;;;;;;5000988;28;20036;-85
2023/11/28 16:04:29;;;;;;;5.53;3.50;;;;;;;;;;5006539;28;20065;-86
2023/11/28 16:07:14;;;;;;;6.03;3.60;;;;;;;;;;5009816;28;20026;-83
2023/11/28 16:10:00;;;;;;;5.35;3.88;;;;;;;;;;5010339;28;20131;-86
2023/11/28 16:12:47;;;;;;;7.43;3.95;;;;;;;;;;5005246;28;20040;-87
2023/11/28 16:15:33;;;;;;;3.83;3.25;;;;;;;;;;5011815;28;20037;-83
2023/11/28 16:18:18;;;;;;;4.63;3.70;;;;;;;;;;5001892;28;20424;-83
2023/11/28 16:21:03;;;;;;;4.78;3.72;;;;;;;;;;5003311;28;20037;-85
2023/11/28 16:23:49;;;;;;;5.88;4.05;;;;;;;;;;4995719;28;20460;-84
2023/11/28 16:26:37;;;;;;;7.90;4.82;;;;;;;;;;4997545;28;20377;-82
2023/11/28 16:29:22;;;;;;;7.03;4.68;;;;;;;;;;4993993;28;20319;-80
2023/11/28 16:32:07;;;;;;;7.60;5.55;;;;;;;;;;4991870;28;20056;-80
2023/11/28 16:34:53;;;;;;;8.13;4.95;;;;;;;;;;5004514;28;20034;-78